createdAt,value
2022-10-17T00:00:11.508Z,100.00
2022-10-17T00:02:37.941Z,100.00
2022-10-17T00:05:04.761Z,100.00
2022-10-17T00:07:32.313Z,100.00
2022-10-17T00:09:58.727Z,100.00
2022-10-17T00:12:25.195Z,100.00
2022-10-17T00:14:51.806Z,100.00
2022-10-17T00:17:18.470Z,100.00
2022-10-17T00:19:44.936Z,100.00
2022-10-17T00:22:11.564Z,100.00
2022-10-17T00:24:38.062Z,100.00
2022-10-17T00:27:04.501Z,100.00
2022-10-17T00:29:32.066Z,100.00
2022-10-17T00:31:58.492Z,100.00
2022-10-17T00:34:25.379Z,100.00
2022-10-17T00:36:51.998Z,100.00
2022-10-17T00:39:18.618Z,100.00
2022-10-17T00:41:45.032Z,100.00
2022-10-17T00:44:29.824Z,100.00
2022-10-17T00:47:05.019Z,100.00
2022-10-17T00:49:34.930Z,100.00
2022-10-17T00:52:05.108Z,100.00
2022-10-17T00:54:34.718Z,100.00
2022-10-17T00:57:01.544Z,100.00
2022-10-17T00:59:28.389Z,100.00
2022-10-17T01:02:05.583Z,100.00
2022-10-17T01:04:32.517Z,100.00
2022-10-17T01:06:59.150Z,100.00
2022-10-17T01:09:26.421Z,100.00
2022-10-17T01:12:02.681Z,100.00
2022-10-17T01:14:43.976Z,100.00
2022-10-17T01:17:29.565Z,100.00
2022-10-17T01:20:24.117Z,100.00
2022-10-17T01:23:05.303Z,100.00
2022-10-17T01:25:51.898Z,100.00
2022-10-17T01:31:15.927Z,100.00
2022-10-17T01:34:02.038Z,100.00
2022-10-17T01:36:43.629Z,100.00
2022-10-17T01:39:14.909Z,100.00
2022-10-17T01:42:05.930Z,100.00
2022-10-17T01:47:41.943Z,100.00
2022-10-17T01:50:15.338Z,100.00
2022-10-17T01:52:45.551Z,100.00
2022-10-17T01:55:33.164Z,100.00
2022-10-17T01:58:06.083Z,100.00
2022-10-17T02:00:32.856Z,100.00
2022-10-17T02:03:01.533Z,100.00
2022-10-17T02:05:32.426Z,100.00
2022-10-17T02:07:58.974Z,100.00
2022-10-17T02:10:35.413Z,100.00
2022-10-17T02:13:14.282Z,100.00
2022-10-17T02:16:09.008Z,100.00
2022-10-17T02:18:48.159Z,100.00
2022-10-17T02:21:19.657Z,100.00
2022-10-17T02:23:52.177Z,100.00
2022-10-17T02:26:26.459Z,100.00
2022-10-17T02:29:06.036Z,100.00
2022-10-17T02:31:38.831Z,100.00
2022-10-17T02:34:07.966Z,100.00
2022-10-17T02:36:39.683Z,100.00
2022-10-17T02:39:07.886Z,100.00
2022-10-17T02:41:35.197Z,100.00
2022-10-17T02:44:02.594Z,100.00
2022-10-17T02:46:29.483Z,100.00
2022-10-17T02:49:07.877Z,100.00
2022-10-17T02:51:42.797Z,100.00
2022-10-17T02:54:27.949Z,100.00
2022-10-17T02:57:07.106Z,100.00
2022-10-17T03:02:06.847Z,100.00
2022-10-17T03:04:34.284Z,100.00
2022-10-17T03:07:00.766Z,100.00
2022-10-17T03:09:27.405Z,100.00
2022-10-17T03:11:53.909Z,100.00
2022-10-17T03:14:20.653Z,100.00
2022-10-17T03:16:47.241Z,100.00
2022-10-17T03:19:13.763Z,100.00
2022-10-17T03:21:40.286Z,100.00
2022-10-17T03:24:07.117Z,100.00
2022-10-17T03:26:33.644Z,100.00
2022-10-17T03:29:00.242Z,100.00
2022-10-17T03:31:26.945Z,100.00
2022-10-17T03:33:53.453Z,100.00
2022-10-17T03:36:20.067Z,100.00
2022-10-17T03:38:47.159Z,100.00
2022-10-17T03:41:13.731Z,100.00
2022-10-17T03:43:40.605Z,100.00
2022-10-17T03:46:07.421Z,100.00
2022-10-17T03:48:33.991Z,100.00
2022-10-17T03:51:05.658Z,100.00
2022-10-17T03:53:32.450Z,100.00
2022-10-17T03:56:15.911Z,100.00
2022-10-17T03:58:42.758Z,100.00
2022-10-17T04:01:11.004Z,100.00
2022-10-17T04:03:37.555Z,100.00
2022-10-17T04:06:05.047Z,100.00
2022-10-17T04:08:32.736Z,100.00
2022-10-17T04:11:02.956Z,100.00
2022-10-17T04:13:29.777Z,100.00
2022-10-17T04:16:02.162Z,100.00
2022-10-17T04:18:28.903Z,100.00
2022-10-17T04:20:55.463Z,100.00
2022-10-17T04:23:22.391Z,100.00
2022-10-17T04:25:49.250Z,100.00
2022-10-17T04:28:15.952Z,100.00
2022-10-17T04:30:45.132Z,100.00
2022-10-17T04:33:12.067Z,100.00
2022-10-17T04:35:38.527Z,100.00
2022-10-17T04:38:05.080Z,100.00
2022-10-17T04:40:32.309Z,100.00
2022-10-17T04:42:58.829Z,100.00
2022-10-17T04:45:25.324Z,100.00
2022-10-17T04:47:51.764Z,100.00
2022-10-17T04:50:18.379Z,100.00
2022-10-17T04:52:44.838Z,100.00
2022-10-17T04:55:11.525Z,100.00
2022-10-17T04:57:38.045Z,100.00
2022-10-17T05:00:04.912Z,100.00
2022-10-17T05:02:32.622Z,100.00
2022-10-17T05:04:59.231Z,100.00
2022-10-17T05:07:25.898Z,100.00
2022-10-17T05:09:52.385Z,100.00
2022-10-17T05:12:19.000Z,100.00
2022-10-17T05:14:45.544Z,100.00
2022-10-17T05:17:11.968Z,100.00
2022-10-17T05:19:38.723Z,100.00
2022-10-17T05:22:05.195Z,100.00
2022-10-17T05:24:32.637Z,100.00
2022-10-17T05:26:59.128Z,100.00
2022-10-17T05:29:26.043Z,100.00
2022-10-17T05:31:52.711Z,100.00
2022-10-17T05:34:19.425Z,100.00
2022-10-17T05:36:46.238Z,100.00
2022-10-17T05:39:14.804Z,100.00
2022-10-17T05:41:41.575Z,100.00
2022-10-17T05:44:08.203Z,100.00
2022-10-17T05:46:34.646Z,100.00
2022-10-17T05:49:01.089Z,100.00
2022-10-17T05:51:27.696Z,100.00
2022-10-17T05:53:54.354Z,100.00
2022-10-17T05:56:20.840Z,100.00
2022-10-17T05:58:53.256Z,100.00
2022-10-17T06:01:21.719Z,100.00
2022-10-17T06:03:48.181Z,100.00
2022-10-17T06:06:15.698Z,100.00
2022-10-17T06:08:42.551Z,100.00
2022-10-17T06:11:10.507Z,100.00
2022-10-17T06:13:38.314Z,100.00
2022-10-17T06:16:05.545Z,100.00
2022-10-17T06:18:32.425Z,100.00
2022-10-17T06:21:06.265Z,100.00
2022-10-17T06:23:32.932Z,100.00
2022-10-17T06:26:04.056Z,100.00
2022-10-17T06:28:31.369Z,100.00
2022-10-17T06:30:58.191Z,100.00
2022-10-17T06:33:25.000Z,100.00
2022-10-17T06:35:55.472Z,100.00
2022-10-17T06:38:22.559Z,100.00
2022-10-17T06:40:49.217Z,99.74
2022-10-17T06:43:15.717Z,97.58
2022-10-17T06:45:42.259Z,97.50
2022-10-17T06:48:08.807Z,97.27
2022-10-17T06:50:35.688Z,97.10
2022-10-17T06:53:02.243Z,96.52
2022-10-17T06:55:28.669Z,95.91
2022-10-17T06:57:56.411Z,94.66
2022-10-17T07:00:23.539Z,94.13
2022-10-17T07:02:50.108Z,94.20
2022-10-17T07:05:16.890Z,93.42
2022-10-17T07:07:44.824Z,92.20
2022-10-17T07:10:12.914Z,91.95
2022-10-17T07:12:39.402Z,91.27
2022-10-17T07:15:06.276Z,90.25
2022-10-17T07:17:32.952Z,90.81
2022-10-17T07:19:59.472Z,89.80
2022-10-17T07:22:26.001Z,89.26
2022-10-17T07:24:52.462Z,89.09
2022-10-17T07:27:19.572Z,87.24
2022-10-17T07:29:46.094Z,85.64
2022-10-17T07:32:12.529Z,84.19
2022-10-17T07:34:38.957Z,82.06
2022-10-17T07:37:07.024Z,79.22
2022-10-17T07:39:35.623Z,71.20
2022-10-17T07:42:02.415Z,62.81
2022-10-17T07:44:29.363Z,56.47
2022-10-17T07:46:56.121Z,50.32
2022-10-17T07:49:22.583Z,47.08
2022-10-17T07:51:50.178Z,44.80
2022-10-17T07:54:17.238Z,43.24
2022-10-17T07:56:44.032Z,39.92
2022-10-17T07:59:10.901Z,38.49
2022-10-17T08:01:37.937Z,36.45
2022-10-17T08:04:04.601Z,35.85
2022-10-17T08:06:34.172Z,38.53
2022-10-17T08:09:01.901Z,45.13
2022-10-17T08:11:28.331Z,49.02
2022-10-17T08:13:54.888Z,49.25
2022-10-17T08:16:21.495Z,45.53
2022-10-17T08:18:54.106Z,43.37
2022-10-17T08:21:20.622Z,38.67
2022-10-17T08:23:47.181Z,37.65
2022-10-17T08:26:16.796Z,35.10
2022-10-17T08:28:43.757Z,34.06
2022-10-17T08:31:13.432Z,35.17
2022-10-17T08:33:40.930Z,35.31
2022-10-17T08:36:08.579Z,35.07
2022-10-17T08:38:37.585Z,35.54
2022-10-17T08:41:12.137Z,36.11
2022-10-17T08:43:55.189Z,34.14
2022-10-17T08:46:21.948Z,32.19
2022-10-17T08:48:49.629Z,33.67
2022-10-17T08:51:21.450Z,38.67
2022-10-17T08:53:50.077Z,42.45
2022-10-17T08:56:48.835Z,46.63
2022-10-17T08:59:28.255Z,50.73
2022-10-17T09:02:03.483Z,52.98
2022-10-17T09:04:49.564Z,54.05
2022-10-17T09:07:20.829Z,55.20
2022-10-17T09:09:55.988Z,54.93
2022-10-17T09:12:28.890Z,54.79
2022-10-17T09:15:23.052Z,54.96
2022-10-17T09:17:59.705Z,55.29
2022-10-17T09:20:32.577Z,55.37
2022-10-17T09:23:20.326Z,56.59
2022-10-17T09:25:50.144Z,56.12
2022-10-17T09:28:37.521Z,55.45
2022-10-17T09:31:07.476Z,57.51
2022-10-17T09:33:53.956Z,57.53
2022-10-17T09:36:22.080Z,58.30
2022-10-17T09:38:57.784Z,57.85
2022-10-17T09:41:47.391Z,58.26
2022-10-17T09:44:23.632Z,58.82
2022-10-17T09:47:08.911Z,58.74
2022-10-17T09:49:38.574Z,57.96
2022-10-17T09:52:09.506Z,57.31
2022-10-17T09:54:44.926Z,56.86
2022-10-17T09:57:13.134Z,57.28
2022-10-17T09:59:44.340Z,57.04
2022-10-17T10:02:13.786Z,56.05
2022-10-17T10:05:06.053Z,55.89
2022-10-17T10:07:38.461Z,55.69
2022-10-17T10:10:08.314Z,56.08
2022-10-17T10:12:37.415Z,56.29
2022-10-17T10:15:34.811Z,55.75
2022-10-17T10:18:01.436Z,55.34
2022-10-17T10:20:36.809Z,55.05
2022-10-17T10:23:17.736Z,55.90
2022-10-17T10:26:01.627Z,55.62
2022-10-17T10:28:34.576Z,55.21
2022-10-17T10:31:04.680Z,54.60
2022-10-17T10:33:33.448Z,54.00
2022-10-17T10:36:02.093Z,53.80
2022-10-17T10:38:29.687Z,53.90
2022-10-17T10:41:07.797Z,55.08
2022-10-17T10:43:37.998Z,54.71
2022-10-17T10:46:16.193Z,55.41
2022-10-17T10:48:51.385Z,55.54
2022-10-17T10:51:22.529Z,54.69
2022-10-17T10:53:58.223Z,53.41
2022-10-17T10:56:49.798Z,53.43
2022-10-17T10:59:39.484Z,54.47
2022-10-17T11:02:17.733Z,55.01
2022-10-17T11:04:47.354Z,54.77
2022-10-17T11:07:20.069Z,54.01
2022-10-17T11:09:53.656Z,54.70
2022-10-17T11:12:27.608Z,54.72
2022-10-17T11:15:06.245Z,54.91
2022-10-17T11:17:40.691Z,54.86
2022-10-17T11:20:15.508Z,55.51
2022-10-17T11:22:47.706Z,55.94
2022-10-17T11:25:28.698Z,56.73
2022-10-17T11:27:55.416Z,56.44
2022-10-17T11:30:24.317Z,56.84
2022-10-17T11:32:54.402Z,55.99
2022-10-17T11:35:31.117Z,56.09
2022-10-17T11:38:07.573Z,55.62
2022-10-17T11:40:36.594Z,56.56
2022-10-17T11:43:13.611Z,54.97
2022-10-17T11:45:46.439Z,53.29
2022-10-17T11:48:20.782Z,54.34
2022-10-17T11:53:58.181Z,53.78
2022-10-17T11:57:04.965Z,54.45
2022-10-17T12:00:06.768Z,53.55
2022-10-17T12:02:47.453Z,53.01
2022-10-17T12:05:33.363Z,53.00
2022-10-17T12:08:05.920Z,53.88
2022-10-17T12:10:56.837Z,52.90
2022-10-17T12:13:29.178Z,52.91
2022-10-17T12:15:56.844Z,53.03
2022-10-17T12:18:29.865Z,52.81
2022-10-17T12:20:58.225Z,54.01
2022-10-17T12:23:28.935Z,54.13
2022-10-17T12:26:01.535Z,54.36
2022-10-17T12:28:38.041Z,53.17
2022-10-17T12:31:10.121Z,52.88
2022-10-17T12:33:49.624Z,52.98
2022-10-17T12:36:18.711Z,52.56
2022-10-17T12:38:50.113Z,52.80
2022-10-17T12:41:17.704Z,52.91
2022-10-17T12:43:52.251Z,52.96
2022-10-17T12:46:44.268Z,53.85
2022-10-17T12:49:24.872Z,53.38
2022-10-17T12:52:21.803Z,53.02
2022-10-17T12:55:11.457Z,53.38
2022-10-17T12:57:52.218Z,53.40
2022-10-17T13:00:28.875Z,53.58
2022-10-17T13:05:55.810Z,54.17
2022-10-17T13:08:25.285Z,54.55
2022-10-17T13:10:52.978Z,55.17
2022-10-17T13:13:56.265Z,55.36
2022-10-17T13:16:36.250Z,55.15
2022-10-17T13:19:12.355Z,55.95
2022-10-17T13:21:38.923Z,56.10
2022-10-17T13:24:31.555Z,56.12
2022-10-17T13:26:58.658Z,56.40
2022-10-17T13:29:26.304Z,56.82
2022-10-17T13:31:55.757Z,56.86
2022-10-17T13:34:24.809Z,57.20
2022-10-17T13:36:54.722Z,56.83
2022-10-17T13:39:38.359Z,56.97
2022-10-17T13:42:23.395Z,57.26
2022-10-17T13:44:50.272Z,57.14
2022-10-17T13:47:28.871Z,57.15
2022-10-17T13:49:57.062Z,57.78
2022-10-17T13:52:25.927Z,58.02
2022-10-17T13:54:53.837Z,58.89
2022-10-17T13:57:29.392Z,59.40
2022-10-17T14:00:02.169Z,59.78
2022-10-17T14:02:35.225Z,59.65
2022-10-17T14:05:19.216Z,59.99
2022-10-17T14:10:42.752Z,60.64
2022-10-17T14:13:28.791Z,60.53
2022-10-17T14:15:59.185Z,60.38
2022-10-17T14:18:33.199Z,60.71
2022-10-17T14:23:50.590Z,61.35
2022-10-17T14:26:21.250Z,61.81
2022-10-17T14:29:04.278Z,62.00
2022-10-17T14:31:33.582Z,62.11
2022-10-17T14:34:01.139Z,61.65
2022-10-17T14:36:37.160Z,62.20
2022-10-17T14:39:08.491Z,62.11
2022-10-17T14:41:43.554Z,62.62
2022-10-17T14:44:19.974Z,62.73
2022-10-17T14:46:50.688Z,63.09
2022-10-17T14:49:24.593Z,63.60
2022-10-17T14:52:14.906Z,64.28
2022-10-17T14:54:46.372Z,63.84
2022-10-17T14:57:23.900Z,64.17
2022-10-17T14:59:55.169Z,64.37
2022-10-17T15:02:24.385Z,65.14
2022-10-17T15:04:51.124Z,64.69
2022-10-17T15:07:18.060Z,65.08
2022-10-17T15:09:45.689Z,65.59
2022-10-17T15:12:17.407Z,65.34
2022-10-17T15:14:44.819Z,66.10
2022-10-17T15:17:18.769Z,65.95
2022-10-17T15:19:45.282Z,66.41
2022-10-17T15:22:12.351Z,66.09
2022-10-17T15:24:39.071Z,66.59
2022-10-17T15:27:21.954Z,67.35
2022-10-17T15:29:49.057Z,67.85
2022-10-17T15:32:16.085Z,67.70
2022-10-17T15:34:42.956Z,67.57
2022-10-17T15:37:23.315Z,68.92
2022-10-17T15:39:54.652Z,68.79
2022-10-17T15:42:23.382Z,68.83
2022-10-17T15:44:50.273Z,69.46
2022-10-17T15:47:33.785Z,69.31
2022-10-17T15:50:01.314Z,69.81
2022-10-17T15:52:28.266Z,70.00
2022-10-17T15:54:57.285Z,70.33
2022-10-17T15:57:28.885Z,69.95
2022-10-17T15:59:57.764Z,69.87
2022-10-17T16:02:24.765Z,70.40
2022-10-17T16:04:51.864Z,70.54
2022-10-17T16:07:22.526Z,71.07
2022-10-17T16:09:49.044Z,71.25
2022-10-17T16:12:18.376Z,71.17
2022-10-17T16:14:45.443Z,71.69
2022-10-17T16:17:17.900Z,72.12
2022-10-17T16:19:44.817Z,72.35
2022-10-17T16:22:44.136Z,72.67
2022-10-17T16:25:20.896Z,72.96
2022-10-17T16:27:48.385Z,73.06
2022-10-17T16:30:15.389Z,73.17
2022-10-17T16:32:42.038Z,73.38
2022-10-17T16:35:09.155Z,73.50
2022-10-17T16:37:35.979Z,73.97
2022-10-17T16:40:04.412Z,74.43
2022-10-17T16:42:31.535Z,74.60
2022-10-17T16:44:58.309Z,74.78
2022-10-17T16:47:24.763Z,74.71
2022-10-17T16:49:51.328Z,75.30
2022-10-17T16:52:17.741Z,75.22
2022-10-17T16:54:44.245Z,76.17
2022-10-17T16:57:10.822Z,76.28
2022-10-17T16:59:37.263Z,76.66
2022-10-17T17:02:03.684Z,76.24
2022-10-17T17:04:31.256Z,76.38
2022-10-17T17:06:57.770Z,76.53
2022-10-17T17:09:24.569Z,76.42
2022-10-17T17:11:54.178Z,76.16
2022-10-17T17:14:20.750Z,76.27
2022-10-17T17:16:47.286Z,76.32
2022-10-17T17:19:16.767Z,76.53
2022-10-17T17:21:51.102Z,76.63
2022-10-17T17:24:20.766Z,76.82
2022-10-17T17:26:54.020Z,77.48
2022-10-17T17:29:21.658Z,77.09
2022-10-17T17:31:49.024Z,77.18
2022-10-17T17:34:18.060Z,77.24
2022-10-17T17:36:45.266Z,77.70
2022-10-17T17:39:14.524Z,77.60
2022-10-17T17:41:42.049Z,77.89
2022-10-17T17:44:12.586Z,77.79
2022-10-17T17:46:43.794Z,78.14
2022-10-17T17:49:11.538Z,78.14
2022-10-17T17:51:38.362Z,79.05
2022-10-17T17:54:05.231Z,79.63
2022-10-17T17:56:32.384Z,79.63
2022-10-17T17:59:01.597Z,79.74
2022-10-17T18:01:38.533Z,79.68
2022-10-17T18:04:08.527Z,79.57
2022-10-17T18:06:36.287Z,79.87
2022-10-17T18:09:04.008Z,80.72
2022-10-17T18:11:31.162Z,80.51
2022-10-17T18:14:00.474Z,80.81
2022-10-17T18:16:28.153Z,80.93
2022-10-17T18:18:54.625Z,80.88
2022-10-17T18:21:21.467Z,80.81
2022-10-17T18:23:48.710Z,80.96
2022-10-17T18:26:15.538Z,81.04
2022-10-17T18:28:43.210Z,81.60
2022-10-17T18:31:24.322Z,82.01
2022-10-17T18:33:52.776Z,82.29
2022-10-17T18:36:19.445Z,82.25
2022-10-17T18:38:45.981Z,82.09
2022-10-17T18:41:15.381Z,82.15
2022-10-17T18:43:43.873Z,82.36
2022-10-17T18:46:25.217Z,82.57
2022-10-17T18:48:51.911Z,82.32
2022-10-17T18:51:21.830Z,82.60
2022-10-17T18:53:50.678Z,82.50
2022-10-17T18:56:19.227Z,82.64
2022-10-17T18:58:46.085Z,83.01
2022-10-17T19:01:17.865Z,83.29
2022-10-17T19:03:45.973Z,83.45
2022-10-17T19:06:13.837Z,83.58
2022-10-17T19:08:41.099Z,83.97
2022-10-17T19:11:13.271Z,84.04
2022-10-17T19:13:40.193Z,84.11
2022-10-17T19:16:12.635Z,84.16
2022-10-17T19:18:39.137Z,83.67
2022-10-17T19:21:08.145Z,83.70
2022-10-17T19:23:38.117Z,83.51
2022-10-17T19:26:06.551Z,83.39
2022-10-17T19:28:33.661Z,83.14
2022-10-17T19:31:00.398Z,83.50
2022-10-17T19:36:00.466Z,83.96
2022-10-17T19:38:27.413Z,83.77
2022-10-17T19:40:54.271Z,84.59
2022-10-17T19:43:21.093Z,84.33
2022-10-17T19:45:57.769Z,84.05
2022-10-17T19:48:24.993Z,84.27
2022-10-17T19:50:52.793Z,84.74
2022-10-17T19:53:20.352Z,84.60
2022-10-17T19:55:46.975Z,84.48
2022-10-17T19:58:13.689Z,84.43
2022-10-17T20:00:49.287Z,84.54
2022-10-17T20:03:16.400Z,85.22
2022-10-17T20:05:42.994Z,85.21
2022-10-17T20:08:09.683Z,85.61
2022-10-17T20:10:36.303Z,86.08
2022-10-17T20:13:02.977Z,86.27
2022-10-17T20:15:29.864Z,86.75
2022-10-17T20:17:56.769Z,86.96
2022-10-17T20:20:23.399Z,87.05
2022-10-17T20:22:50.187Z,86.90
2022-10-17T20:25:16.692Z,87.43
2022-10-17T20:27:43.246Z,87.71
2022-10-17T20:30:10.010Z,87.44
2022-10-17T20:32:39.493Z,88.17
2022-10-17T20:35:07.752Z,88.58
2022-10-17T20:37:39.875Z,88.86
2022-10-17T20:42:55.720Z,89.42
2022-10-17T20:45:37.321Z,89.61
2022-10-17T20:48:15.955Z,90.18
2022-10-17T20:50:43.375Z,90.07
2022-10-17T20:53:35.356Z,90.62
2022-10-17T20:56:08.755Z,90.78
2022-10-17T20:58:35.634Z,90.89
2022-10-17T21:01:09.478Z,90.48
2022-10-17T21:03:42.378Z,90.09
2022-10-17T21:06:12.439Z,90.21
2022-10-17T21:08:38.923Z,90.34
2022-10-17T21:11:27.571Z,90.51
2022-10-17T21:13:56.839Z,90.07
2022-10-17T21:16:23.999Z,89.99
2022-10-17T21:18:50.874Z,90.20
2022-10-17T21:21:23.526Z,90.25
2022-10-17T21:23:51.109Z,90.17
2022-10-17T21:26:18.581Z,90.28
2022-10-17T21:28:46.288Z,90.33
2022-10-17T21:31:17.335Z,90.40
2022-10-17T21:33:46.344Z,90.60
2022-10-17T21:36:13.917Z,90.66
2022-10-17T21:38:40.872Z,90.65
2022-10-17T21:41:08.708Z,90.58
2022-10-17T21:43:36.261Z,91.07
2022-10-17T21:46:13.792Z,91.18
2022-10-17T21:48:40.539Z,90.85
2022-10-17T21:51:09.406Z,90.11
2022-10-17T21:53:36.205Z,90.14
2022-10-17T21:56:04.737Z,90.15
2022-10-17T21:58:32.253Z,90.08
2022-10-17T22:01:15.825Z,89.19
2022-10-17T22:03:47.183Z,88.64
2022-10-17T22:09:33.848Z,88.82
2022-10-17T22:12:00.429Z,88.81
2022-10-17T22:14:27.357Z,88.66
2022-10-17T22:16:54.026Z,88.18
2022-10-17T22:19:25.200Z,88.03
2022-10-17T22:21:52.110Z,88.77
2022-10-17T22:26:51.912Z,88.23
2022-10-17T22:29:18.976Z,88.33
2022-10-17T22:31:45.848Z,88.30
2022-10-17T22:34:14.517Z,87.73
2022-10-17T22:36:41.375Z,88.10
2022-10-17T22:39:07.860Z,88.05
2022-10-17T22:41:34.443Z,87.44
2022-10-17T22:44:01.307Z,87.33
2022-10-17T22:46:27.914Z,87.90
2022-10-17T22:48:54.554Z,88.01
2022-10-17T22:51:21.067Z,87.43
2022-10-17T22:53:47.624Z,88.39
2022-10-17T22:56:16.650Z,87.87
2022-10-17T22:58:43.155Z,87.22
2022-10-17T23:01:14.317Z,87.05
2022-10-17T23:03:40.916Z,86.32
2022-10-17T23:06:07.383Z,86.55
2022-10-17T23:08:33.873Z,86.28
2022-10-17T23:11:00.789Z,86.22
2022-10-17T23:13:27.347Z,86.80
2022-10-17T23:15:55.650Z,86.98
2022-10-17T23:18:23.552Z,86.82
2022-10-17T23:20:50.538Z,85.90
2022-10-17T23:23:17.214Z,85.16
2022-10-17T23:25:43.936Z,84.72
2022-10-17T23:28:10.766Z,84.51
2022-10-17T23:30:37.956Z,84.67
2022-10-17T23:33:05.195Z,84.41
2022-10-17T23:35:32.446Z,84.58
2022-10-17T23:37:58.885Z,84.19
2022-10-17T23:40:25.424Z,84.54
2022-10-17T23:42:52.063Z,84.08
2022-10-17T23:45:18.650Z,83.40
2022-10-17T23:47:45.405Z,83.51
2022-10-17T23:50:12.201Z,83.23
2022-10-17T23:52:39.068Z,83.52
2022-10-17T23:55:06.168Z,83.77
2022-10-17T23:57:33.081Z,83.59
2022-10-17T23:59:59.831Z,83.63
